Time;durP1;ratioP1;P1;durP2;ratioP2;P2;SDS_P1;SDS_P2;PMS_P1;PMS_P2;Temp;Humidity;BMP_temperature;BMP_pressure;BME280_temperature;BME280_humidity;BME280_pressure;Samples;Min_cycle;Max_cycle;Signal;HPM_P1;HPM_P2
2021/04/11 00:02:10;;;;;;;1999.90;999.90;;;3.60;99.90;;;;;;5140030;27;20427;-92
2021/04/11 00:04:39;;;;;;;1999.90;999.90;;;3.60;99.90;;;;;;5139857;27;20442;-93
2021/04/11 00:07:07;;;;;;;1999.90;999.90;;;3.60;99.90;;;;;;5139848;27;20188;-92
2021/04/11 00:09:34;;;;;;;1999.90;999.90;;;3.60;99.90;;;;;;5139247;27;20051;-92
2021/04/11 00:12:02;;;;;;;1999.90;999.90;;;3.60;99.90;;;;;;5139192;27;20055;-92
2021/04/11 00:14:29;;;;;;;1999.90;999.90;;;3.60;99.90;;;;;;5139043;27;20054;-92
2021/04/11 00:16:57;;;;;;;1999.90;999.90;;;3.60;99.90;;;;;;5139586;27;20059;-92
2021/04/11 00:19:24;;;;;;;1999.90;999.90;;;3.60;99.90;;;;;;5139231;27;20055;-93
2021/04/11 00:21:52;;;;;;;1999.90;999.90;;;3.60;99.90;;;;;;5139220;27;20058;-92
2021/04/11 00:24:20;;;;;;;1999.90;999.90;;;3.60;99.90;;;;;;5138491;27;20063;-93
2021/04/11 00:26:47;;;;;;;1999.90;999.90;;;3.70;99.90;;;;;;5139174;27;20051;-92
2021/04/11 00:29:14;;;;;;;1999.90;999.90;;;3.60;99.90;;;;;;5139807;27;20474;-93
2021/04/11 00:31:42;;;;;;;1999.90;999.90;;;3.70;99.90;;;;;;5139078;27;20466;-92
2021/04/11 00:34:09;;;;;;;1999.90;999.90;;;3.70;99.90;;;;;;5138702;27;20057;-93
2021/04/11 00:36:36;;;;;;;1999.90;999.90;;;3.70;99.90;;;;;;5140160;27;20066;-92
2021/04/11 00:39:06;;;;;;;1999.90;999.90;;;3.70;99.90;;;;;;5140657;27;20062;-92
2021/04/11 00:41:35;;;;;;;1999.90;999.90;;;3.70;99.90;;;;;;5141438;27;20047;-92
2021/04/11 00:44:05;;;;;;;1999.90;999.90;;;3.60;99.90;;;;;;5140408;27;20074;-92
2021/04/11 00:46:42;;;;;;;1999.90;999.90;;;3.70;99.90;;;;;;5139951;27;20100;-92
2021/04/11 00:49:14;;;;;;;1999.90;999.90;;;3.70;99.90;;;;;;5138093;27;20104;-92
2021/04/11 00:51:41;;;;;;;1999.90;999.90;;;3.70;99.90;;;;;;5139740;27;20050;-92
2021/04/11 00:54:10;;;;;;;1999.90;999.90;;;3.70;99.90;;;;;;5142331;27;20115;-91
2021/04/11 00:56:38;;;;;;;1999.90;999.90;;;3.70;99.90;;;;;;5147036;27;20058;-92
2021/04/11 00:59:07;;;;;;;1999.90;999.90;;;3.70;99.90;;;;;;5139128;27;20047;-91
2021/04/11 01:01:36;;;;;;;1999.90;999.90;;;3.70;99.90;;;;;;5138117;27;20051;-92
2021/04/11 01:04:05;;;;;;;1999.90;999.90;;;3.70;99.90;;;;;;5138138;27;20051;-91
2021/04/11 01:06:38;;;;;;;1999.90;999.90;;;3.70;99.90;;;;;;5137789;27;20058;-92
2021/04/11 01:09:13;;;;;;;1999.90;999.90;;;3.70;99.90;;;;;;5138405;27;20058;-92
2021/04/11 01:11:43;;;;;;;1999.90;999.90;;;3.70;99.90;;;;;;5138359;27;20073;-93
2021/04/11 01:14:11;;;;;;;1999.90;999.90;;;3.70;99.90;;;;;;5138326;27;20043;-92
2021/04/11 01:16:39;;;;;;;1999.90;999.90;;;3.70;99.90;;;;;;5138003;27;20061;-92
2021/04/11 01:19:11;;;;;;;1999.90;999.90;;;3.70;99.90;;;;;;5138440;27;20390;-92
2021/04/11 01:21:46;;;;;;;1999.90;999.90;;;3.70;99.90;;;;;;5137779;27;20428;-92
2021/04/11 01:24:18;;;;;;;1999.90;999.90;;;3.80;99.90;;;;;;5138035;27;20051;-91
2021/04/11 01:26:50;;;;;;;1999.90;999.90;;;3.70;99.90;;;;;;5138219;27;20082;-92
2021/04/11 01:29:18;;;;;;;1999.90;999.90;;;3.70;99.90;;;;;;5137717;27;20100;-93
2021/04/11 01:31:45;;;;;;;1999.90;999.90;;;3.70;99.90;;;;;;5138021;27;20078;-92
2021/04/11 01:34:13;;;;;;;1999.90;999.90;;;3.70;99.90;;;;;;5137460;27;20051;-91
2021/04/11 01:36:44;;;;;;;1999.90;999.90;;;3.70;99.90;;;;;;5137442;27;20047;-92
2021/04/11 01:39:16;;;;;;;1999.90;999.90;;;3.60;99.90;;;;;;5137412;27;20047;-92
2021/04/11 01:41:46;;;;;;;1999.90;999.90;;;3.60;99.90;;;;;;5138008;27;20424;-92
2021/04/11 01:44:22;;;;;;;1999.90;999.90;;;3.70;99.90;;;;;;5136757;27;20107;-92
2021/04/11 01:46:49;;;;;;;1999.90;999.90;;;3.60;99.90;;;;;;5137020;27;20482;-92
2021/04/11 01:49:17;;;;;;;1999.90;999.90;;;3.60;99.90;;;;;;5138107;27;20130;-92
2021/04/11 01:51:48;;;;;;;1999.90;999.90;;;3.60;99.90;;;;;;5137025;27;20054;-92
2021/04/11 01:54:20;;;;;;;1999.90;999.90;;;3.60;99.90;;;;;;5138161;27;20527;-92
2021/04/11 01:56:49;;;;;;;1999.90;999.90;;;3.60;99.90;;;;;;5137139;27;20074;-92
2021/04/11 01:59:17;;;;;;;1999.90;999.90;;;3.60;99.90;;;;;;5137114;27;20047;-92
2021/04/11 02:01:50;;;;;;;1999.90;999.90;;;3.60;99.90;;;;;;5136557;27;20067;-91
2021/04/11 02:04:20;;;;;;;;;;;3.60;99.90;;;;;;5138239;27;20051;-91
2021/04/11 02:06:52;;;;;;;1999.90;999.90;;;3.70;99.90;;;;;;5137172;27;20370;-92
2021/04/11 02:09:23;;;;;;;1999.90;999.90;;;3.60;99.90;;;;;;5137236;27;20137;-91
2021/04/11 02:11:52;;;;;;;1999.90;999.90;;;3.60;99.90;;;;;;5136733;27;20047;-92
2021/04/11 02:14:20;;;;;;;1999.90;999.90;;;3.60;99.90;;;;;;5136557;27;20055;-92
2021/04/11 02:16:48;;;;;;;1999.90;999.90;;;3.70;99.90;;;;;;5136709;27;20050;-92
2021/04/11 02:19:18;;;;;;;1999.90;999.90;;;3.60;99.90;;;;;;5136401;27;20042;-92
2021/04/11 02:21:49;;;;;;;1999.90;999.90;;;3.60;99.90;;;;;;5136471;27;20047;-92
2021/04/11 02:24:17;;;;;;;1999.90;999.90;;;3.60;99.90;;;;;;5137137;27;20053;-92
2021/04/11 02:26:48;;;;;;;1999.90;999.90;;;3.70;99.90;;;;;;5136532;27;20059;-92
2021/04/11 02:29:19;;;;;;;1999.90;999.90;;;3.70;99.90;;;;;;5136233;27;20043;-92
2021/04/11 02:31:47;;;;;;;1999.90;999.90;;;3.70;99.90;;;;;;5136229;27;20095;-92
2021/04/11 02:34:22;;;;;;;1999.90;999.90;;;3.70;99.90;;;;;;5136405;27;20047;-92
2021/04/11 02:36:52;;;;;;;1999.90;999.90;;;3.70;99.90;;;;;;5136515;27;20073;-91
2021/04/11 02:39:22;;;;;;;1999.90;999.90;;;3.70;99.90;;;;;;5136300;27;20043;-92
2021/04/11 02:41:50;;;;;;;1999.90;999.90;;;3.70;99.90;;;;;;5136731;27;20051;-92
2021/04/11 02:44:18;;;;;;;1999.90;999.90;;;3.70;99.90;;;;;;5136443;27;20357;-91
2021/04/11 02:46:47;;;;;;;1999.90;999.90;;;3.70;99.90;;;;;;5136797;27;20051;-91
2021/04/11 02:49:22;;;;;;;1999.90;999.90;;;3.70;99.90;;;;;;5136767;27;20078;-92
2021/04/11 02:51:53;;;;;;;1999.90;999.90;;;3.80;99.90;;;;;;5136853;27;20077;-92
2021/04/11 02:54:23;;;;;;;1999.90;999.90;;;3.80;99.90;;;;;;5136615;27;20061;-92
2021/04/11 02:56:50;;;;;;;1999.90;999.90;;;3.80;99.90;;;;;;5137988;27;20047;-92
2021/04/11 02:59:20;;;;;;;1999.90;999.90;;;3.80;99.90;;;;;;5137393;27;20104;-92
2021/04/11 03:01:51;;;;;;;1999.90;999.90;;;3.80;99.90;;;;;;5137645;27;20134;-91
2021/04/11 03:04:21;;;;;;;1999.90;999.90;;;3.80;99.90;;;;;;5137193;27;20051;-93
2021/04/11 03:06:56;;;;;;;1999.90;999.90;;;3.80;99.90;;;;;;5136734;27;20062;-90
2021/04/11 03:09:25;;;;;;;;;;;3.70;99.90;;;;;;5136452;27;20047;-92
2021/04/11 03:11:55;;;;;;;1999.90;999.90;;;3.70;99.90;;;;;;5136563;27;20232;-92
2021/04/11 03:14:30;;;;;;;1999.90;999.90;;;3.80;99.90;;;;;;5135663;27;20094;-92
2021/04/11 03:16:59;;;;;;;1999.90;999.90;;;3.80;99.90;;;;;;5136376;28;20059;-92
2021/04/11 03:19:33;;;;;;;1999.90;999.90;;;3.80;99.90;;;;;;5135638;28;20547;-93
2021/04/11 03:22:01;;;;;;;1999.90;999.90;;;3.80;99.90;;;;;;5136219;27;20055;-92
2021/04/11 03:24:29;;;;;;;1999.90;999.90;;;3.80;99.90;;;;;;5135721;28;20496;-92
2021/04/11 03:27:04;;;;;;;1999.90;999.90;;;3.80;99.90;;;;;;5135450;28;20055;-92
2021/04/11 03:29:33;;;;;;;;;;;3.80;99.90;;;;;;5136759;28;20054;-92
2021/04/11 03:32:08;;;;;;;1999.90;999.90;;;3.90;99.90;;;;;;5135874;28;20346;-92
2021/04/11 03:34:37;;;;;;;1999.90;999.90;;;3.90;99.90;;;;;;5136038;28;20054;-93
2021/04/11 03:37:12;;;;;;;1999.90;999.90;;;3.90;99.90;;;;;;5136166;28;20475;-92
2021/04/11 03:39:40;;;;;;;1999.90;999.90;;;3.80;99.90;;;;;;5135574;28;20058;-92
2021/04/11 03:42:10;;;;;;;1999.90;999.90;;;3.90;99.90;;;;;;5135869;28;20100;-92
2021/04/11 03:44:39;;;;;;;1999.90;999.90;;;3.90;99.90;;;;;;5136030;28;20474;-92
2021/04/11 03:47:10;;;;;;;1999.90;999.90;;;3.90;99.90;;;;;;5135238;28;20096;-92
2021/04/11 03:49:45;;;;;;;1999.90;999.90;;;3.90;99.90;;;;;;5135802;28;20119;-92
2021/04/11 03:52:20;;;;;;;1999.90;999.90;;;3.90;99.90;;;;;;5135689;28;20047;-93
2021/04/11 03:54:48;;;;;;;1999.90;999.90;;;3.90;99.90;;;;;;5136708;28;20099;-91
2021/04/11 03:57:20;;;;;;;1999.90;999.90;;;3.90;99.90;;;;;;5136422;28;20047;-92
2021/04/11 03:59:51;;;;;;;1999.90;999.90;;;4.00;99.90;;;;;;5140253;28;20054;-92
2021/04/11 04:02:22;;;;;;;1999.90;999.90;;;4.00;99.90;;;;;;5151435;28;20067;-92
2021/04/11 04:04:51;;;;;;;1999.90;999.90;;;3.90;99.90;;;;;;5140131;27;20422;-92
2021/04/11 04:07:20;;;;;;;1999.90;999.90;;;4.00;99.90;;;;;;5135729;28;20128;-91
2021/04/11 04:09:55;;;;;;;1999.90;999.90;;;3.90;99.90;;;;;;5135217;28;20051;-93
2021/04/11 04:12:58;;;;;;;1999.90;999.90;;;4.00;99.90;;;;;;5136816;28;20104;-92
2021/04/11 04:15:35;;;;;;;1999.90;999.90;;;4.00;99.90;;;;;;5131913;27;20104;-92
2021/04/11 04:18:30;;;;;;;1999.90;999.90;;;4.00;99.90;;;;;;5136108;28;20039;-93
2021/04/11 04:21:02;;;;;;;1999.90;999.90;;;4.00;99.90;;;;;;5136284;28;20051;-92
2021/04/11 04:23:44;;;;;;;1999.90;999.90;;;4.00;99.90;;;;;;5136590;27;20047;-91
2021/04/11 04:26:42;;;;;;;1999.90;999.90;;;4.00;99.90;;;;;;5138723;27;20047;-92
2021/04/11 04:29:21;;;;;;;1999.90;999.90;;;4.00;99.90;;;;;;5137909;27;20450;-92
2021/04/11 04:32:15;;;;;;;1999.90;999.90;;;4.00;99.90;;;;;;5138938;27;20489;-91
2021/04/11 04:34:48;;;;;;;1999.90;999.90;;;4.00;99.90;;;;;;5138615;27;20051;-92
2021/04/11 04:37:26;;;;;;;1999.90;999.90;;;4.00;99.90;;;;;;5138524;27;20381;-95
2021/04/11 04:39:57;;;;;;;1999.90;999.90;;;4.00;99.90;;;;;;5138899;27;20047;-95
2021/04/11 04:42:31;;;;;;;1999.90;999.90;;;4.00;99.90;;;;;;5139359;27;20051;-95
2021/04/11 04:45:08;;;;;;;1999.90;999.90;;;4.00;99.90;;;;;;5138700;27;20050;-95
2021/04/11 04:47:45;;;;;;;1999.90;999.90;;;4.00;99.90;;;;;;5139282;27;20100;-94
2021/04/11 04:50:19;;;;;;;1999.90;999.90;;;3.90;99.90;;;;;;5138778;27;20078;-95
2021/04/11 04:52:58;;;;;;;1999.90;999.90;;;3.90;99.90;;;;;;5139185;27;20435;-95
2021/04/11 04:55:26;;;;;;;1999.90;999.90;;;4.00;99.90;;;;;;5140288;27;20055;-92
2021/04/11 04:58:04;;;;;;;1999.90;999.90;;;4.00;99.90;;;;;;5139467;27;20043;-92
2021/04/11 05:00:35;;;;;;;1999.90;999.90;;;4.00;99.90;;;;;;5135336;27;20499;-92
2021/04/11 05:03:09;;;;;;;1999.90;999.90;;;4.00;99.90;;;;;;5138187;27;20055;-91
2021/04/11 05:05:41;;;;;;;1999.90;999.90;;;4.00;99.90;;;;;;5124135;27;20562;-92
2021/04/11 05:08:13;;;;;;;1999.90;999.90;;;4.00;99.90;;;;;;5140755;27;20072;-91
2021/04/11 05:10:44;;;;;;;1999.90;999.90;;;4.10;99.90;;;;;;5152511;27;20530;-91
2021/04/11 05:13:18;;;;;;;1999.90;999.90;;;4.00;99.90;;;;;;5142521;27;20485;-92
2021/04/11 05:15:52;;;;;;;1999.90;999.90;;;4.10;99.90;;;;;;5138155;27;20061;-91
2021/04/11 05:18:25;;;;;;;1999.90;999.90;;;4.10;99.90;;;;;;5127080;27;20043;-92
2021/04/11 05:20:58;;;;;;;1999.90;999.90;;;4.10;99.90;;;;;;5138368;27;20055;-92
2021/04/11 05:23:30;;;;;;;1999.90;999.90;;;4.10;99.90;;;;;;5138027;27;20051;-92
2021/04/11 05:26:05;;;;;;;1999.90;999.90;;;4.10;99.90;;;;;;5138410;27;20513;-92
2021/04/11 05:28:41;;;;;;;1999.90;999.90;;;4.10;99.90;;;;;;5117036;28;20088;-93
2021/04/11 05:31:13;;;;;;;1999.90;999.90;;;4.10;99.90;;;;;;5131413;27;20058;-91
2021/04/11 05:33:44;;;;;;;1999.90;999.90;;;4.10;99.90;;;;;;5137658;27;20055;-92
2021/04/11 05:36:21;;;;;;;1999.90;999.90;;;4.20;99.90;;;;;;5137481;27;20047;-92
2021/04/11 05:38:59;;;;;;;1999.90;999.90;;;4.10;99.90;;;;;;5124109;27;20054;-91
2021/04/11 05:41:36;;;;;;;1999.90;999.90;;;4.10;99.90;;;;;;5136518;27;20493;-91
2021/04/11 05:44:14;;;;;;;1999.90;999.90;;;4.10;99.90;;;;;;5134496;27;20078;-91
2021/04/11 05:46:46;;;;;;;1999.90;999.90;;;4.10;99.90;;;;;;5137085;27;20051;-91
2021/04/11 05:49:19;;;;;;;1999.90;999.90;;;4.10;99.90;;;;;;5128460;27;20044;-91
2021/04/11 05:51:54;;;;;;;1999.90;999.90;;;4.20;99.90;;;;;;5133215;27;20047;-91
2021/04/11 05:54:27;;;;;;;1999.90;999.90;;;4.20;99.90;;;;;;5137153;27;20051;-91
2021/04/11 05:57:00;;;;;;;1999.90;999.90;;;4.20;99.90;;;;;;5136676;27;20456;-91
2021/04/11 05:59:35;;;;;;;1999.90;999.90;;;4.20;99.90;;;;;;5136563;27;20043;-91
2021/04/11 06:02:04;;;;;;;1999.90;999.90;;;4.20;99.90;;;;;;5136544;27;20051;-92
2021/04/11 06:04:40;;;;;;;1999.90;999.90;;;4.20;99.90;;;;;;5136597;27;20051;-91
2021/04/11 06:07:12;;;;;;;1999.90;999.90;;;4.20;99.90;;;;;;5131003;27;20059;-91
2021/04/11 06:09:45;;;;;;;1999.90;999.90;;;4.20;99.90;;;;;;5136349;27;20129;-91
2021/04/11 06:12:20;;;;;;;1999.90;999.90;;;4.20;99.90;;;;;;5136364;27;20043;-91
2021/04/11 06:14:53;;;;;;;1999.90;999.90;;;4.20;99.90;;;;;;5131265;27;20051;-91
2021/04/11 06:17:20;;;;;;;1999.90;999.90;;;4.30;99.90;;;;;;5132407;27;20043;-90
2021/04/11 06:19:49;;;;;;;1999.90;999.90;;;4.30;99.90;;;;;;5132935;27;20039;-92
2021/04/11 06:22:22;;;;;;;1999.90;999.90;;;4.30;99.90;;;;;;5135120;27;20082;-91
2021/04/11 06:24:55;;;;;;;1999.90;999.90;;;4.30;99.90;;;;;;5135217;27;20039;-91
2021/04/11 06:27:40;;;;;;;1999.90;999.90;;;4.30;99.90;;;;;;5134612;27;20051;-91
2021/04/11 06:30:13;;;;;;;1999.90;999.90;;;4.30;99.90;;;;;;5132089;27;20035;-91
2021/04/11 06:32:47;;;;;;;1999.90;999.90;;;4.30;99.90;;;;;;5132623;27;20050;-91
2021/04/11 06:35:20;;;;;;;1999.90;999.90;;;4.30;99.90;;;;;;5131126;27;20490;-90
2021/04/11 06:37:52;;;;;;;1999.90;999.90;;;4.30;99.90;;;;;;5122049;27;20051;-91
2021/04/11 06:40:39;;;;;;;1999.90;999.90;;;4.30;99.90;;;;;;5134028;27;20047;-91
2021/04/11 06:43:40;;;;;;;1999.90;999.90;;;4.40;99.90;;;;;;5124054;27;20080;-91
2021/04/11 06:46:23;;;;;;;1999.90;999.90;;;4.30;99.90;;;;;;5130324;27;20325;-91
2021/04/11 06:49:11;;;;;;;1999.90;999.90;;;4.30;99.90;;;;;;5136678;27;20104;-91
2021/04/11 06:52:13;;;;;;;1999.90;999.90;;;4.30;99.90;;;;;;5121403;27;20086;-91
2021/04/11 06:55:02;;;;;;;1999.90;999.90;;;4.30;99.90;;;;;;5118583;27;20052;-91
2021/04/11 06:57:55;;;;;;;1999.90;999.90;;;4.30;99.90;;;;;;5142345;27;20059;-90
2021/04/11 07:00:42;;;;;;;1999.90;999.90;;;4.30;99.90;;;;;;5142993;27;20043;-92
2021/04/11 07:03:53;;;;;;;1999.90;999.90;;;4.40;99.90;;;;;;5138557;27;20104;-91
2021/04/11 07:06:50;;;;;;;1999.90;999.90;;;4.40;99.90;;;;;;5130959;27;20055;-91
2021/04/11 07:09:42;;;;;;;1999.90;999.90;;;4.40;99.90;;;;;;5129549;27;20057;-91
2021/04/11 07:12:41;;;;;;;1999.90;999.90;;;4.40;99.90;;;;;;5134384;27;20063;-91
2021/04/11 07:15:23;;;;;;;1999.90;999.90;;;4.40;99.90;;;;;;5132880;27;20460;-91
2021/04/11 07:18:38;;;;;;;1999.90;999.90;;;4.40;99.90;;;;;;5134864;27;20134;-91
2021/04/11 07:21:42;;;;;;;1999.90;999.90;;;4.40;99.90;;;;;;5134517;28;20065;-91
2021/04/11 07:24:43;;;;;;;1999.90;999.90;;;4.40;99.90;;;;;;5133156;28;20043;-91
2021/04/11 07:27:23;;;;;;;1999.90;999.90;;;4.50;99.90;;;;;;5131875;28;20051;-91
2021/04/11 07:30:03;;;;;;;1999.90;999.90;;;4.50;99.90;;;;;;5130243;28;20039;-90
2021/04/11 07:32:54;;;;;;;1999.90;999.90;;;4.50;99.90;;;;;;5127483;27;20100;-91
2021/04/11 07:35:29;;;;;;;1999.90;999.90;;;4.50;99.90;;;;;;5117896;28;20113;-91
2021/04/11 07:38:29;;;;;;;1999.90;999.90;;;4.60;99.90;;;;;;5128571;28;20142;-91
2021/04/11 07:41:21;;;;;;;1999.90;999.90;;;4.50;99.90;;;;;;5131806;28;20048;-91
2021/04/11 07:44:08;;;;;;;1999.90;999.90;;;4.60;99.90;;;;;;5133752;27;20055;-91
2021/04/11 07:47:03;;;;;;;1999.90;999.90;;;4.60;99.90;;;;;;5127434;28;20048;-91
2021/04/11 07:49:58;;;;;;;1999.90;999.90;;;4.70;99.90;;;;;;5127062;28;20075;-91
2021/04/11 07:52:52;;;;;;;1999.90;999.90;;;4.70;99.90;;;;;;5129079;28;20111;-91
2021/04/11 07:55:28;;;;;;;1999.90;999.90;;;4.70;99.90;;;;;;5135941;27;20055;-91
2021/04/11 07:58:14;;;;;;;1999.90;999.90;;;4.80;99.90;;;;;;5135712;27;20054;-92
2021/04/11 08:01:01;;;;;;;1999.90;999.90;;;4.80;99.90;;;;;;5140426;27;20055;-92
2021/04/11 08:03:45;;;;;;;1999.90;999.90;;;4.90;99.90;;;;;;5140034;27;20058;-92
2021/04/11 08:06:44;;;;;;;1999.90;999.90;;;4.90;99.90;;;;;;5140320;27;20050;-91
2021/04/11 08:09:38;;;;;;;1999.90;999.90;;;5.00;99.90;;;;;;5140097;27;20453;-91
2021/04/11 08:12:23;;;;;;;1999.90;999.90;;;5.10;99.90;;;;;;5139817;27;20054;-92
2021/04/11 08:15:03;;;;;;;1999.90;999.90;;;5.10;99.90;;;;;;5139113;27;20070;-91
2021/04/11 08:18:01;;;;;;;1999.90;999.90;;;5.10;99.90;;;;;;5139396;27;20477;-91
2021/04/11 08:20:49;;;;;;;1999.90;999.90;;;5.10;99.90;;;;;;5139154;27;20067;-92
2021/04/11 08:23:55;;;;;;;1999.90;999.90;;;5.10;99.90;;;;;;5139311;27;20043;-91
2021/04/11 08:26:52;;;;;;;1999.90;999.90;;;5.10;99.90;;;;;;5139389;27;20059;-91
2021/04/11 08:29:44;;;;;;;1999.90;999.90;;;5.10;99.90;;;;;;5140206;27;20130;-91
2021/04/11 08:32:25;;;;;;;1999.90;999.90;;;5.10;99.90;;;;;;5139341;27;20047;-91
2021/04/11 08:35:11;;;;;;;1999.90;999.90;;;5.20;99.90;;;;;;5139092;27;20130;-95
2021/04/11 08:38:08;;;;;;;1999.90;999.90;;;5.10;99.90;;;;;;5139278;27;20104;-95
2021/04/11 08:41:04;;;;;;;1999.90;999.90;;;5.10;99.90;;;;;;5138883;27;20108;-94
2021/04/11 08:43:58;;;;;;;1999.90;999.90;;;5.10;99.90;;;;;;5139034;27;20043;-96
2021/04/11 08:46:45;;;;;;;1999.90;999.90;;;5.20;99.90;;;;;;5138734;27;20540;-95
2021/04/11 08:49:21;;;;;;;1999.90;999.90;;;5.20;99.90;;;;;;5138732;27;20051;-95
2021/04/11 08:51:59;;;;;;;1999.90;999.90;;;5.20;99.90;;;;;;5138966;27;20251;-95
2021/04/11 08:54:40;;;;;;;1999.90;999.90;;;5.20;99.90;;;;;;5139457;27;20061;-95
2021/04/11 08:57:16;;;;;;;1999.90;999.90;;;5.30;99.90;;;;;;5139052;27;20103;-95
2021/04/11 08:59:54;;;;;;;1999.90;999.90;;;5.40;99.90;;;;;;5138889;27;20123;-95
2021/04/11 09:02:58;;;;;;;1999.90;999.90;;;5.40;99.90;;;;;;5141023;27;20047;-95
2021/04/11 09:05:36;;;;;;;1999.90;999.90;;;5.40;99.90;;;;;;5146231;27;20107;-94
2021/04/11 09:08:15;;;;;;;1999.90;999.90;;;5.40;99.90;;;;;;5155722;27;20039;-95
2021/04/11 09:11:20;;;;;;;1999.90;999.90;;;5.40;99.90;;;;;;5161408;27;20038;-95
2021/04/11 09:13:58;;;;;;;1999.90;999.90;;;5.50;99.90;;;;;;5148658;27;20047;-96
2021/04/11 09:16:35;;;;;;;1999.90;999.90;;;5.50;99.90;;;;;;5140779;27;20066;-95
2021/04/11 09:19:16;;;;;;;1999.90;999.90;;;5.60;99.90;;;;;;5139284;27;20050;-96
2021/04/11 09:22:19;;;;;;;1999.90;999.90;;;5.60;99.90;;;;;;5138174;27;20058;-96
2021/04/11 09:24:51;;;;;;;1999.90;999.90;;;5.60;99.90;;;;;;5138648;27;20085;-91
2021/04/11 09:27:54;;;;;;;1999.90;999.90;;;5.70;99.90;;;;;;5132768;27;20059;-91
2021/04/11 09:30:50;;;;;;;1999.90;999.90;;;5.70;99.90;;;;;;5122148;27;20473;-91
2021/04/11 09:33:47;;;;;;;1999.90;999.90;;;5.80;99.90;;;;;;5135008;27;20058;-91
2021/04/11 09:36:21;;;;;;;1999.90;999.90;;;5.80;99.90;;;;;;5137041;27;20104;-91
2021/04/11 09:39:14;;;;;;;1999.90;999.90;;;5.90;99.90;;;;;;5124380;27;20519;-91
2021/04/11 09:42:29;;;;;;;1999.90;999.90;;;6.00;99.90;;;;;;5136856;27;20051;-91
2021/04/11 09:45:59;;;;;;;1999.90;999.90;;;6.10;99.90;;;;;;5116782;27;20043;-91
2021/04/11 09:48:43;;;;;;;1999.90;999.90;;;6.20;99.90;;;;;;5078530;27;20049;-92
2021/04/11 09:51:31;;;;;;;1999.90;999.90;;;6.30;99.90;;;;;;5136882;27;20051;-92
2021/04/11 09:54:20;;;;;;;1999.90;999.90;;;6.30;99.90;;;;;;5137190;27;20167;-93
2021/04/11 09:57:11;;;;;;;1999.90;999.90;;;6.40;99.90;;;;;;5137578;27;20074;-92
2021/04/11 10:00:06;;;;;;;1999.90;999.90;;;6.50;99.90;;;;;;5138051;27;20051;-92
2021/04/11 10:02:53;;;;;;;1999.90;999.90;;;6.50;99.90;;;;;;5136771;27;20054;-91
2021/04/11 10:05:29;;;;;;;1999.90;999.90;;;6.40;99.90;;;;;;5136854;27;20480;-92
2021/04/11 10:08:24;;;;;;;1999.90;999.90;;;6.30;99.90;;;;;;5137181;27;20050;-92
2021/04/11 10:11:08;;;;;;;1999.90;999.90;;;6.20;99.90;;;;;;5137011;27;20078;-92
2021/04/11 10:14:07;;;;;;;1999.90;999.90;;;6.10;99.90;;;;;;5136953;27;20047;-92
2021/04/11 10:16:44;;;;;;;1999.90;999.90;;;6.00;99.90;;;;;;5137574;27;20051;-90
2021/04/11 10:19:54;;;;;;;1999.90;999.90;;;6.00;99.90;;;;;;5137116;27;20043;-91
2021/04/11 10:22:44;;;;;;;1999.90;999.90;;;6.00;99.90;;;;;;5106839;27;20046;-92
2021/04/11 10:25:20;;;;;;;1999.90;999.90;;;6.00;99.90;;;;;;5136849;27;20470;-91
2021/04/11 10:28:00;;;;;;;1999.90;999.90;;;6.10;99.90;;;;;;5136045;27;20051;-92
2021/04/11 10:30:28;;;;;;;1999.90;999.90;;;6.10;99.90;;;;;;5136871;27;20067;-92
2021/04/11 10:33:04;;;;;;;1999.90;999.90;;;6.10;99.90;;;;;;5136635;27;20074;-91
2021/04/11 10:35:38;;;;;;;1999.90;999.90;;;6.10;99.90;;;;;;5136894;27;20374;-92
2021/04/11 10:38:14;;;;;;;1999.90;999.90;;;6.20;99.90;;;;;;5136265;27;20058;-91
2021/04/11 10:41:25;;;;;;;1999.90;999.90;;;6.30;99.90;;;;;;5136508;27;20043;-92
2021/04/11 10:44:04;;;;;;;1999.90;999.90;;;6.40;99.90;;;;;;5088811;27;20051;-91
2021/04/11 10:46:42;;;;;;;1999.90;999.90;;;6.40;99.90;;;;;;5135738;27;20047;-91
2021/04/11 10:49:26;;;;;;;1999.90;999.90;;;6.40;99.90;;;;;;5135954;27;20053;-91
2021/04/11 10:52:13;;;;;;;1999.90;999.90;;;6.50;99.90;;;;;;5136625;27;20047;-91
2021/04/11 10:55:27;;;;;;;1999.90;999.90;;;6.50;99.90;;;;;;5136283;27;20448;-91
2021/04/11 10:58:38;;;;;;;1999.90;999.90;;;6.50;99.90;;;;;;5137186;27;20047;-91
2021/04/11 11:01:24;;;;;;;1999.90;999.90;;;6.50;99.90;;;;;;5141050;27;20050;-92
2021/04/11 11:04:14;;;;;;;1999.90;999.90;;;6.60;99.90;;;;;;5151541;27;20370;-91
2021/04/11 11:07:14;;;;;;;1999.90;999.90;;;6.60;99.90;;;;;;5143785;27;20054;-95
2021/04/11 11:09:46;;;;;;;1999.90;999.90;;;6.70;99.90;;;;;;5156254;27;20104;-95
2021/04/11 11:12:40;;;;;;;1999.90;999.90;;;6.90;99.90;;;;;;5157046;27;20076;-95
2021/04/11 11:15:15;;;;;;;1999.90;999.90;;;6.80;99.90;;;;;;5157651;27;20046;-95
2021/04/11 11:18:11;;;;;;;1999.90;999.90;;;6.90;99.90;;;;;;5156838;27;20384;-96
2021/04/11 11:20:49;;;;;;;1999.90;999.90;;;7.00;99.90;;;;;;5156918;27;20138;-95
2021/04/11 11:23:40;;;;;;;1999.90;999.90;;;7.20;99.90;;;;;;5158389;27;20082;-95
2021/04/11 11:26:31;;;;;;;1999.90;999.90;;;7.20;99.90;;;;;;5157313;27;20471;-96
2021/04/11 11:29:39;;;;;;;1999.90;999.90;;;7.30;99.90;;;;;;5156702;27;20051;-96
2021/04/11 11:32:17;;;;;;;1999.90;999.90;;;7.40;99.90;;;;;;5157909;27;20047;-95
2021/04/11 11:34:54;;;;;;;1999.90;999.90;;;7.50;99.90;;;;;;5160666;27;20443;-95
2021/04/11 11:37:41;;;;;;;1999.90;999.90;;;7.50;99.90;;;;;;5160482;27;20481;-96
2021/04/11 11:40:16;;;;;;;1999.90;999.90;;;7.40;99.90;;;;;;5158723;27;20098;-96
2021/04/11 11:42:55;;;;;;;1999.90;999.90;;;7.50;99.90;;;;;;5162092;27;20051;-95
2021/04/11 11:45:30;;;;;;;1999.90;999.90;;;7.50;99.90;;;;;;5160571;27;20050;-96
2021/04/11 11:48:13;;;;;;;;;;;7.40;99.90;;;;;;5161400;27;20057;-95
2021/04/11 11:50:54;;;;;;;1999.90;999.90;;;7.40;99.90;;;;;;5160973;27;19918;-96
2021/04/11 11:53:26;;;;;;;1999.90;999.90;;;7.50;99.90;;;;;;5161263;27;20057;-95
2021/04/11 11:56:07;;;;;;;1999.90;999.90;;;7.60;99.90;;;;;;5160983;27;20050;-92
2021/04/11 11:58:49;;;;;;;1999.90;999.90;;;7.70;99.90;;;;;;5159966;27;20476;-91
2021/04/11 12:01:34;;;;;;;1999.90;999.90;;;7.70;99.90;;;;;;5146139;27;20062;-91
2021/04/11 12:04:28;;;;;;;1999.90;999.90;;;7.80;99.90;;;;;;5137649;27;20047;-91
2021/04/11 12:07:00;;;;;;;1999.90;999.90;;;7.80;99.90;;;;;;5116336;28;20097;-92
2021/04/11 12:09:34;;;;;;;1999.90;999.90;;;7.90;99.90;;;;;;5118445;28;20054;-91
2021/04/11 12:12:10;;;;;;;1999.90;999.90;;;7.90;99.90;;;;;;5122980;27;20075;-92
2021/04/11 12:14:45;;;;;;;1999.90;999.90;;;8.00;99.90;;;;;;5138797;27;20156;-92
2021/04/11 12:17:16;;;;;;;;;;;8.00;99.90;;;;;;5139609;27;20043;-92
2021/04/11 12:19:52;;;;;;;1999.90;999.90;;;8.00;99.90;;;;;;5139910;27;20404;-92
2021/04/11 12:22:33;;;;;;;1999.90;999.90;;;8.00;99.90;;;;;;5139699;27;20059;-92
2021/04/11 12:25:05;;;;;;;1999.90;999.90;;;8.10;99.80;;;;;;5139262;27;20058;-92
2021/04/11 12:27:35;;;;;;;1999.90;999.90;;;8.10;99.90;;;;;;5138717;27;20055;-92
2021/04/11 12:30:07;;;;;;;1999.90;999.90;;;8.30;99.90;;;;;;5139945;27;20051;-92
2021/04/11 12:32:41;;;;;;;1999.90;999.90;;;8.40;99.70;;;;;;5156650;27;20057;-93
2021/04/11 12:35:21;;;;;;;1999.90;999.90;;;8.40;99.00;;;;;;5159674;27;20055;-91
2021/04/11 12:38:41;;;;;;;1999.90;999.90;;;8.40;99.40;;;;;;5159180;27;20054;-92
2021/04/11 12:41:18;;;;;;;1999.90;999.90;;;8.50;99.90;;;;;;5138724;27;20051;-92
2021/04/11 12:43:57;;;;;;;1999.90;999.90;;;8.60;99.60;;;;;;5138998;27;20409;-93
2021/04/11 12:46:42;;;;;;;1999.90;999.90;;;8.60;98.40;;;;;;5118662;28;20406;-92
2021/04/11 12:49:53;;;;;;;1999.90;999.90;;;8.50;99.10;;;;;;5128204;27;20116;-92
2021/04/11 12:52:30;;;;;;;1999.90;999.90;;;8.50;99.20;;;;;;5121796;27;20047;-92
2021/04/11 12:55:06;;;;;;;1999.90;999.90;;;8.40;99.40;;;;;;5137679;27;20062;-92
2021/04/11 12:57:39;;;;;;;1999.90;999.90;;;8.30;99.90;;;;;;5136025;27;20073;-92
2021/04/11 13:00:15;;;;;;;1999.90;999.90;;;8.30;99.90;;;;;;5137725;27;20058;-92
2021/04/11 13:02:57;;;;;;;1999.90;999.90;;;8.10;99.90;;;;;;5139767;27;20051;-92
2021/04/11 13:05:32;;;;;;;1999.90;999.90;;;8.10;99.90;;;;;;5147198;27;20051;-92
2021/04/11 13:08:09;;;;;;;1999.90;999.90;;;8.30;99.90;;;;;;5140682;27;20393;-91
2021/04/11 13:10:44;;;;;;;1999.90;999.90;;;8.30;99.90;;;;;;5138455;27;20493;-91